createdAt,value
2023-04-22T00:00:59.144Z,27.80
2023-04-22T00:01:59.198Z,27.79
2023-04-22T00:02:59.339Z,27.79
2023-04-22T00:03:59.447Z,27.80
2023-04-22T00:04:59.722Z,27.79
2023-04-22T00:05:59.375Z,27.79
2023-04-22T00:06:59.408Z,27.79
2023-04-22T00:07:59.434Z,27.79
2023-04-22T00:08:59.457Z,27.78
2023-04-22T00:09:59.482Z,27.79
2023-04-22T00:10:59.512Z,27.79
2023-04-22T00:11:59.596Z,27.80
2023-04-22T00:12:59.593Z,27.80
2023-04-22T00:13:59.643Z,27.79
2023-04-22T00:14:59.731Z,27.79
2023-04-22T00:15:59.765Z,27.79
2023-04-22T00:16:59.800Z,27.79
2023-04-22T00:17:59.876Z,27.78
2023-04-22T00:18:59.878Z,27.79
2023-04-22T00:19:59.894Z,27.79
2023-04-22T00:20:59.939Z,27.78
2023-04-22T00:21:59.975Z,27.78
2023-04-22T00:23:00.021Z,27.79
2023-04-22T00:24:00.051Z,27.76
2023-04-22T00:25:00.159Z,27.80
2023-04-22T00:26:00.148Z,27.79
2023-04-22T00:27:00.159Z,27.78
2023-04-22T00:28:00.214Z,27.79
2023-04-22T00:29:00.261Z,27.79
2023-04-22T00:30:00.304Z,27.80
2023-04-22T00:31:00.397Z,27.76
2023-04-22T00:32:00.395Z,27.79
2023-04-22T00:33:00.439Z,27.80
2023-04-22T00:34:00.459Z,27.76
2023-04-22T00:35:00.524Z,27.78
2023-04-22T00:36:00.586Z,27.80
2023-04-22T00:37:00.643Z,27.76
2023-04-22T00:38:00.621Z,27.78
2023-04-22T00:39:00.710Z,27.79
2023-04-22T00:40:00.745Z,27.76
2023-04-22T00:41:00.778Z,27.79
2023-04-22T00:42:00.819Z,27.75
2023-04-22T00:43:00.900Z,27.79
2023-04-22T00:44:00.958Z,27.79
2023-04-22T00:45:00.977Z,27.78
2023-04-22T00:46:01.024Z,27.82
2023-04-22T00:47:01.099Z,27.76
2023-04-22T00:48:01.150Z,27.79
2023-04-22T00:49:01.311Z,27.78
2023-04-22T00:50:01.191Z,27.79
2023-04-22T00:51:01.286Z,27.78
2023-04-22T00:52:01.321Z,27.79
2023-04-22T00:53:01.355Z,27.78
2023-04-22T00:54:01.387Z,27.75
2023-04-22T00:55:01.459Z,27.75
2023-04-22T00:56:01.492Z,27.78
2023-04-22T00:57:01.554Z,27.76
2023-04-22T00:58:01.599Z,27.76
2023-04-22T00:59:01.661Z,27.78
2023-04-22T01:00:01.719Z,27.78
2023-04-22T01:01:01.747Z,27.79
2023-04-22T01:02:01.813Z,27.75
2023-04-22T01:03:02.044Z,27.76
2023-04-22T01:04:02.014Z,27.76
2023-04-22T01:05:01.929Z,27.75
2023-04-22T01:06:01.980Z,27.75
2023-04-22T01:07:02.022Z,27.76
2023-04-22T01:08:02.054Z,27.78
2023-04-22T01:09:02.135Z,27.76
2023-04-22T01:10:02.137Z,27.76
2023-04-22T01:11:02.171Z,27.76
2023-04-22T01:12:02.256Z,27.75
2023-04-22T01:13:02.280Z,27.75
2023-04-22T01:14:02.342Z,27.76
2023-04-22T01:15:04.528Z,27.78
2023-04-22T01:16:02.554Z,27.75
2023-04-22T01:17:02.634Z,27.76
2023-04-22T01:18:02.733Z,27.73
2023-04-22T01:19:02.689Z,27.75
2023-04-22T01:20:02.723Z,27.75
2023-04-22T01:21:02.779Z,27.76
2023-04-22T01:22:02.789Z,27.76
2023-04-22T01:23:02.876Z,27.75
2023-04-22T01:24:02.898Z,27.76
2023-04-22T01:25:02.990Z,27.76
2023-04-22T01:26:03.000Z,27.75
2023-04-22T01:27:03.083Z,27.75
2023-04-22T01:28:03.115Z,27.75
2023-04-22T01:29:03.123Z,27.75
2023-04-22T01:30:03.204Z,27.73
2023-04-22T01:31:03.213Z,27.73
2023-04-22T01:32:03.337Z,27.76
2023-04-22T01:33:03.392Z,27.75
2023-04-22T01:34:03.338Z,27.75
2023-04-22T01:35:03.422Z,27.75
2023-04-22T01:36:03.446Z,27.73
2023-04-22T01:37:03.506Z,27.75
2023-04-22T01:38:03.576Z,27.72
2023-04-22T01:39:03.579Z,27.75
2023-04-22T01:40:03.628Z,27.75
2023-04-22T01:41:03.698Z,27.75
2023-04-22T01:42:03.740Z,27.73
2023-04-22T01:43:03.785Z,27.75
2023-04-22T01:44:03.812Z,27.76
2023-04-22T01:45:03.891Z,27.73
2023-04-22T01:46:04.006Z,27.73
2023-04-22T01:47:03.952Z,27.76
2023-04-22T01:48:04.052Z,27.75
2023-04-22T01:49:04.025Z,27.75
2023-04-22T01:50:04.084Z,27.72
2023-04-22T01:51:04.149Z,27.73
2023-04-22T01:52:04.180Z,27.72
2023-04-22T01:53:04.239Z,27.75
2023-04-22T01:54:04.292Z,27.73
2023-04-22T01:55:04.345Z,27.75
2023-04-22T01:56:04.372Z,27.72
2023-04-22T01:57:04.399Z,27.75
2023-04-22T01:58:04.485Z,27.75
2023-04-22T01:59:04.494Z,27.73
2023-04-22T02:00:04.573Z,27.72
2023-04-22T02:01:04.640Z,27.73
2023-04-22T02:02:04.723Z,27.70
2023-04-22T02:03:04.775Z,27.73
2023-04-22T02:04:04.771Z,27.73
2023-04-22T02:05:04.872Z,27.72
2023-04-22T02:06:04.835Z,27.73
2023-04-22T02:07:04.868Z,27.73
2023-04-22T02:08:04.976Z,27.75
2023-04-22T02:09:05.024Z,27.73
2023-04-22T02:10:05.059Z,27.73
2023-04-22T02:11:05.093Z,27.73
2023-04-22T02:12:05.150Z,27.73
2023-04-22T02:13:05.169Z,27.73
2023-04-22T02:14:05.226Z,27.73
2023-04-22T02:15:05.290Z,27.72
2023-04-22T02:16:05.339Z,27.73
2023-04-22T02:17:05.354Z,27.70
2023-04-22T02:18:05.420Z,27.73
2023-04-22T02:19:05.471Z,27.75
2023-04-22T02:20:05.514Z,27.72
2023-04-22T02:21:05.543Z,27.70
2023-04-22T02:22:05.546Z,27.75
2023-04-22T02:23:05.603Z,27.72
2023-04-22T02:24:05.700Z,27.73
2023-04-22T02:25:05.724Z,27.72
2023-04-22T02:26:05.808Z,27.72
2023-04-22T02:27:05.828Z,27.72
2023-04-22T02:28:05.847Z,27.72
2023-04-22T02:29:05.911Z,27.73
2023-04-22T02:30:05.954Z,27.72
2023-04-22T02:31:06.007Z,27.73
2023-04-22T02:32:06.040Z,27.70
2023-04-22T02:33:06.110Z,27.70
2023-04-22T02:34:06.164Z,27.72
2023-04-22T02:35:06.229Z,27.72
2023-04-22T02:36:06.245Z,27.70
2023-04-22T02:37:06.281Z,27.70
2023-04-22T02:38:06.352Z,27.72
2023-04-22T02:39:06.428Z,27.72
2023-04-22T02:40:06.452Z,27.72
2023-04-22T02:41:06.521Z,27.70
2023-04-22T02:42:06.571Z,27.73
2023-04-22T02:43:06.589Z,27.72
2023-04-22T02:44:06.656Z,27.70
2023-04-22T02:45:06.722Z,27.72
2023-04-22T02:46:06.861Z,27.68
2023-04-22T02:47:06.887Z,27.73
2023-04-22T02:48:07.975Z,27.70
2023-04-22T02:49:06.986Z,27.73
2023-04-22T02:50:06.990Z,27.70
2023-04-22T02:51:07.004Z,27.69
2023-04-22T02:52:07.062Z,27.72
2023-04-22T02:53:07.121Z,27.72
2023-04-22T02:54:07.200Z,27.70
2023-04-22T02:55:07.255Z,27.69
2023-04-22T02:56:07.301Z,27.69
2023-04-22T02:57:07.349Z,27.69
2023-04-22T02:58:07.406Z,27.68
2023-04-22T02:59:07.424Z,27.69
2023-04-22T03:00:07.650Z,27.70
2023-04-22T03:01:07.676Z,27.70
2023-04-22T03:02:07.922Z,27.69
2023-04-22T03:03:07.863Z,27.68
2023-04-22T03:04:07.800Z,27.70
2023-04-22T03:05:07.731Z,27.68
2023-04-22T03:06:07.812Z,27.69
2023-04-22T03:07:07.870Z,27.70
2023-04-22T03:08:07.904Z,27.69
2023-04-22T03:09:07.958Z,27.69
2023-04-22T03:10:07.980Z,27.69
2023-04-22T03:11:08.045Z,27.66
2023-04-22T03:12:08.082Z,27.69
2023-04-22T03:13:08.144Z,27.69
2023-04-22T03:14:08.200Z,27.68
2023-04-22T03:15:08.275Z,27.68
2023-04-22T03:16:08.360Z,27.69
2023-04-22T03:17:08.338Z,27.70
2023-04-22T03:18:08.489Z,27.69
2023-04-22T03:19:08.469Z,27.68
2023-04-22T03:20:08.533Z,27.69
2023-04-22T03:21:08.605Z,27.69
2023-04-22T03:22:08.699Z,27.68
2023-04-22T03:23:08.708Z,27.68
2023-04-22T03:24:08.748Z,27.70
2023-04-22T03:25:08.775Z,27.68
2023-04-22T03:26:08.900Z,27.70
2023-04-22T03:27:08.913Z,27.66
2023-04-22T03:28:08.961Z,27.69
2023-04-22T03:29:09.012Z,27.69
2023-04-22T03:30:09.123Z,27.69
2023-04-22T03:31:09.123Z,27.66
2023-04-22T03:32:09.249Z,27.69
2023-04-22T03:33:09.277Z,27.68
2023-04-22T03:34:09.333Z,27.69
2023-04-22T03:35:09.367Z,27.66
2023-04-22T03:36:09.415Z,27.66
2023-04-22T03:37:09.483Z,27.66
2023-04-22T03:38:09.530Z,27.68
2023-04-22T03:39:09.613Z,27.66
2023-04-22T03:40:09.651Z,27.68
2023-04-22T03:41:09.706Z,27.68
2023-04-22T03:42:09.767Z,27.69
2023-04-22T03:43:09.833Z,27.66
2023-04-22T03:44:09.904Z,27.68
2023-04-22T03:45:09.908Z,27.66
2023-04-22T03:46:10.081Z,27.66
2023-04-22T03:47:10.026Z,27.66
2023-04-22T03:48:10.107Z,27.68
2023-04-22T03:49:10.134Z,27.68
2023-04-22T03:50:10.176Z,27.68
2023-04-22T03:51:10.257Z,27.68
2023-04-22T03:52:10.298Z,27.68
2023-04-22T03:53:10.348Z,27.66
2023-04-22T03:54:10.424Z,27.68
2023-04-22T03:55:10.483Z,27.66
2023-04-22T03:56:10.549Z,27.66
2023-04-22T03:57:10.601Z,27.68
2023-04-22T03:58:10.608Z,27.65
2023-04-22T03:59:10.668Z,27.66
2023-04-22T04:00:10.743Z,27.65
2023-04-22T04:01:10.769Z,27.63
2023-04-22T04:02:10.901Z,27.65
2023-04-22T04:03:11.080Z,27.68
2023-04-22T04:04:11.160Z,27.66
2023-04-22T04:05:11.086Z,27.65
2023-04-22T04:06:11.110Z,27.65
2023-04-22T04:07:11.131Z,27.66
2023-04-22T04:08:11.153Z,27.65
2023-04-22T04:09:11.224Z,27.66
2023-04-22T04:10:11.297Z,27.63
2023-04-22T04:11:11.372Z,27.63
2023-04-22T04:12:11.431Z,27.65
2023-04-22T04:13:11.464Z,27.65
2023-04-22T04:14:11.542Z,27.65
2023-04-22T04:15:11.657Z,27.66
2023-04-22T04:16:11.689Z,27.65
2023-04-22T04:17:11.734Z,27.63
2023-04-22T04:18:11.756Z,27.65
2023-04-22T04:19:11.799Z,27.65
2023-04-22T04:20:11.872Z,27.66
2023-04-22T04:21:11.953Z,27.66
2023-04-22T04:22:12.025Z,27.66
2023-04-22T04:23:12.055Z,27.65
2023-04-22T04:24:12.125Z,27.63
2023-04-22T04:25:12.166Z,27.63
2023-04-22T04:26:12.262Z,27.65
2023-04-22T04:27:12.291Z,27.65
2023-04-22T04:28:12.316Z,27.66
2023-04-22T04:29:12.406Z,27.66
2023-04-22T04:30:12.488Z,27.65
2023-04-22T04:31:12.553Z,27.66
2023-04-22T04:32:12.581Z,27.63
2023-04-22T04:33:12.789Z,27.63
2023-04-22T04:34:12.688Z,27.65
2023-04-22T04:35:12.743Z,27.63
2023-04-22T04:36:12.810Z,27.66
2023-04-22T04:37:12.841Z,27.63
2023-04-22T04:38:12.884Z,27.66
2023-04-22T04:39:12.939Z,27.65
2023-04-22T04:40:13.023Z,27.68
2023-04-22T04:41:13.116Z,27.69
2023-04-22T04:42:13.163Z,27.68
2023-04-22T04:43:13.170Z,27.65
2023-04-22T04:44:13.247Z,27.65
2023-04-22T04:45:13.304Z,27.68
2023-04-22T04:46:13.369Z,27.69
2023-04-22T04:47:13.407Z,27.69
2023-04-22T04:48:13.451Z,27.69
2023-04-22T04:49:13.486Z,27.68
2023-04-22T04:50:13.566Z,27.70
2023-04-22T04:51:13.631Z,27.69
2023-04-22T04:52:13.651Z,27.68
2023-04-22T04:53:13.704Z,27.68
2023-04-22T04:54:13.776Z,27.69
2023-04-22T04:55:13.800Z,27.69
2023-04-22T04:56:13.898Z,27.69
2023-04-22T04:57:13.902Z,27.69
2023-04-22T04:58:13.970Z,27.70
2023-04-22T04:59:14.045Z,27.70
2023-04-22T05:00:14.049Z,27.72
2023-04-22T05:01:14.112Z,27.73
2023-04-22T05:02:14.242Z,27.72
2023-04-22T05:03:14.310Z,27.72
2023-04-22T05:04:14.441Z,27.72
2023-04-22T05:05:14.337Z,27.70
2023-04-22T05:06:14.402Z,27.72
2023-04-22T05:07:14.456Z,27.70
2023-04-22T05:08:14.496Z,27.70
2023-04-22T05:09:14.537Z,27.73
2023-04-22T05:10:14.602Z,27.73
2023-04-22T05:11:14.611Z,27.73
2023-04-22T05:12:14.710Z,27.73
2023-04-22T05:13:14.698Z,27.72
2023-04-22T05:14:14.784Z,27.75
2023-04-22T05:15:14.820Z,27.75
2023-04-22T05:16:14.928Z,27.75
2023-04-22T05:17:14.927Z,27.75
2023-04-22T05:18:14.990Z,27.76
2023-04-22T05:19:15.016Z,27.76
2023-04-22T05:20:15.086Z,27.76
2023-04-22T05:21:15.110Z,27.76
2023-04-22T05:22:15.144Z,27.79
2023-04-22T05:23:15.184Z,27.78
2023-04-22T05:24:15.220Z,27.82
2023-04-22T05:25:15.259Z,27.82
2023-04-22T05:26:15.291Z,27.79
2023-04-22T05:27:15.356Z,27.79
2023-04-22T05:28:15.364Z,27.83
2023-04-22T05:29:15.466Z,27.86
2023-04-22T05:30:15.484Z,27.85
2023-04-22T05:31:15.509Z,27.86
2023-04-22T05:32:15.643Z,27.86
2023-04-22T05:33:15.704Z,27.88
2023-04-22T05:34:15.634Z,27.90
2023-04-22T05:35:15.677Z,27.90
2023-04-22T05:36:15.724Z,27.89
2023-04-22T05:37:15.758Z,27.92
2023-04-22T05:38:15.750Z,27.92
2023-04-22T05:39:15.808Z,27.93
2023-04-22T05:40:15.960Z,27.95
2023-04-22T05:41:15.918Z,27.92
2023-04-22T05:42:15.985Z,27.95
2023-04-22T05:43:15.952Z,27.96
2023-04-22T05:44:16.085Z,27.97
2023-04-22T05:45:16.078Z,27.97
2023-04-22T05:46:16.110Z,27.97
2023-04-22T05:47:16.097Z,27.97
2023-04-22T05:48:16.148Z,27.97
2023-04-22T05:49:16.163Z,28.00
2023-04-22T05:50:16.170Z,27.99
2023-04-22T05:51:16.186Z,28.00
2023-04-22T05:52:16.237Z,28.00
2023-04-22T05:53:16.253Z,28.01
2023-04-22T05:54:16.328Z,28.01
2023-04-22T05:55:16.305Z,28.03
2023-04-22T05:56:16.359Z,28.06
2023-04-22T05:57:16.442Z,28.06
2023-04-22T05:58:16.418Z,28.04
2023-04-22T05:59:16.883Z,28.06
2023-04-22T06:00:16.453Z,28.04
2023-04-22T06:01:16.497Z,28.06
2023-04-22T06:02:16.592Z,28.04
2023-04-22T06:03:16.789Z,28.07
2023-04-22T06:04:16.894Z,28.06
2023-04-22T06:05:16.783Z,28.00
2023-04-22T06:06:16.641Z,28.03
2023-04-22T06:07:16.642Z,28.01
2023-04-22T06:08:16.630Z,28.03
2023-04-22T06:09:16.685Z,28.04
2023-04-22T06:10:16.699Z,28.01
2023-04-22T06:11:16.719Z,28.00
2023-04-22T06:12:16.745Z,28.01
2023-04-22T06:13:16.792Z,28.01
2023-04-22T06:14:16.793Z,28.01
2023-04-22T06:15:16.810Z,28.00
2023-04-22T06:16:16.838Z,28.00
2023-04-22T06:17:16.882Z,28.01
2023-04-22T06:18:16.879Z,28.03
2023-04-22T06:19:16.945Z,28.00
2023-04-22T06:20:16.911Z,27.99
2023-04-22T06:21:16.972Z,28.01
2023-04-22T06:22:16.999Z,28.00
2023-04-22T06:23:17.043Z,28.01
2023-04-22T06:24:17.075Z,28.01
2023-04-22T06:25:17.082Z,28.03
2023-04-22T06:26:17.095Z,28.03
2023-04-22T06:27:17.120Z,28.04
2023-04-22T06:28:17.151Z,28.04
2023-04-22T06:29:17.153Z,28.06
2023-04-22T06:30:17.224Z,28.07
2023-04-22T06:31:18.795Z,28.10
2023-04-22T06:32:17.243Z,28.07
2023-04-22T06:33:17.208Z,28.13
2023-04-22T06:34:17.236Z,28.13
2023-04-22T06:35:17.358Z,28.10
2023-04-22T06:36:17.261Z,28.14
2023-04-22T06:37:17.377Z,28.16
2023-04-22T06:38:17.363Z,28.19
2023-04-22T06:39:17.370Z,28.21
2023-04-22T06:40:17.377Z,28.24
2023-04-22T06:41:17.402Z,28.23
2023-04-22T06:42:17.328Z,28.24
2023-04-22T06:43:17.393Z,28.28
2023-04-22T06:44:17.396Z,28.28
2023-04-22T06:45:17.391Z,28.27
2023-04-22T06:46:17.432Z,28.31
2023-04-22T06:47:17.428Z,28.33
2023-04-22T06:48:17.364Z,28.30
2023-04-22T06:50:15.111Z,28.30
2023-04-22T06:51:15.134Z,28.31
2023-04-22T06:52:15.179Z,28.31
2023-04-22T06:53:15.204Z,28.31
2023-04-22T06:54:15.219Z,28.33
2023-04-22T06:55:15.245Z,28.37
2023-04-22T06:56:15.304Z,28.33
2023-04-22T06:57:15.375Z,28.36
2023-04-22T06:58:15.402Z,28.37
2023-04-22T06:59:15.494Z,28.37
2023-04-22T07:00:15.530Z,28.40
2023-04-22T07:01:15.623Z,28.40
2023-04-22T07:02:15.734Z,28.43
2023-04-22T07:03:15.839Z,28.44
2023-04-22T07:04:15.833Z,28.47
2023-04-22T07:05:15.886Z,28.48
2023-04-22T07:06:15.932Z,28.48
2023-04-22T07:07:16.138Z,28.52
2023-04-22T07:08:16.024Z,28.54
2023-04-22T07:09:16.087Z,28.55
2023-04-22T07:10:16.162Z,28.58
2023-04-22T07:11:16.193Z,28.57
2023-04-22T07:12:16.281Z,28.58
2023-04-22T07:13:16.316Z,28.61
2023-04-22T07:14:16.375Z,28.62
2023-04-22T07:15:16.415Z,28.64
2023-04-22T07:16:16.490Z,28.62
2023-04-22T07:17:16.498Z,28.64
2023-04-22T07:18:16.550Z,28.68
2023-04-22T07:19:16.629Z,28.68
2023-04-22T07:20:16.658Z,28.72
2023-04-22T07:21:16.720Z,28.71
2023-04-22T07:22:16.761Z,28.71
2023-04-22T07:23:16.802Z,28.72
2023-04-22T07:24:16.826Z,28.74
2023-04-22T07:25:16.851Z,28.74
2023-04-22T07:26:16.923Z,28.77
2023-04-22T07:27:16.950Z,28.75
2023-04-22T07:28:16.971Z,28.77
2023-04-22T07:29:16.997Z,28.78
2023-04-22T07:30:17.042Z,28.79
2023-04-22T07:31:17.141Z,28.78
2023-04-22T07:32:17.161Z,28.79
2023-04-22T07:33:17.208Z,28.79
2023-04-22T07:34:17.211Z,28.78
2023-04-22T07:35:17.242Z,28.81
2023-04-22T07:36:17.289Z,28.79
2023-04-22T07:37:17.305Z,28.78
2023-04-22T07:38:17.344Z,28.78
2023-04-22T07:39:17.350Z,28.78
2023-04-22T07:40:17.413Z,28.81
2023-04-22T07:41:17.447Z,28.81
2023-04-22T07:42:17.486Z,28.82
2023-04-22T07:43:17.522Z,28.81
2023-04-22T07:44:17.553Z,28.82
2023-04-22T07:45:17.601Z,28.84
2023-04-22T07:46:17.689Z,28.82
2023-04-22T07:47:17.684Z,28.82
2023-04-22T07:48:17.706Z,28.81
2023-04-22T07:49:17.721Z,28.82
2023-04-22T07:50:17.786Z,28.81
2023-04-22T07:51:17.814Z,28.82
2023-04-22T07:52:17.853Z,28.82
2023-04-22T07:53:17.888Z,28.81
2023-04-22T07:54:17.917Z,28.84
2023-04-22T07:55:17.974Z,28.81
2023-04-22T07:56:18.002Z,28.81
2023-04-22T07:57:18.039Z,28.84
2023-04-22T07:58:18.044Z,28.81
2023-04-22T07:59:18.080Z,28.84
2023-04-22T08:00:18.151Z,28.82
2023-04-22T08:01:20.093Z,28.84
2023-04-22T08:02:18.257Z,28.84
2023-04-22T08:03:18.378Z,28.87
2023-04-22T08:04:18.588Z,28.87
2023-04-22T08:05:18.433Z,28.88
2023-04-22T08:06:18.309Z,28.92
2023-04-22T08:07:32.507Z,28.95
2023-04-22T08:08:19.372Z,28.95
2023-04-22T08:09:18.340Z,28.97
2023-04-22T08:10:18.341Z,28.97
2023-04-22T08:11:18.311Z,29.01
2023-04-22T08:12:18.318Z,29.03
2023-04-22T08:13:18.436Z,29.03
2023-04-22T08:14:18.298Z,29.03
2023-04-22T08:15:18.307Z,29.06
2023-04-22T08:16:18.380Z,29.05
2023-04-22T08:17:18.275Z,29.08
2023-04-22T08:18:18.287Z,29.08
2023-04-22T08:19:18.256Z,29.09
2023-04-22T08:20:18.279Z,29.06
2023-04-22T08:21:18.249Z,29.08
2023-04-22T08:22:18.261Z,29.11
2023-04-22T08:23:18.254Z,29.12
2023-04-22T08:24:18.233Z,29.12
2023-04-22T08:25:18.284Z,29.15
2023-04-22T08:26:18.209Z,29.18
2023-04-22T08:27:18.233Z,29.16
2023-04-22T08:28:18.243Z,29.18
2023-04-22T08:29:18.188Z,29.21
2023-04-22T08:30:18.172Z,29.21
2023-04-22T08:31:18.222Z,29.21
2023-04-22T08:32:18.197Z,29.19
2023-04-22T08:33:18.161Z,29.21
2023-04-22T08:34:18.221Z,29.22
2023-04-22T08:35:18.174Z,29.23
2023-04-22T08:36:18.176Z,29.23
2023-04-22T08:37:18.176Z,29.25
2023-04-22T08:38:18.164Z,29.25
2023-04-22T08:39:18.145Z,29.23
2023-04-22T08:40:18.137Z,29.26
2023-04-22T08:41:18.158Z,29.26
2023-04-22T08:42:18.181Z,29.28
2023-04-22T08:43:18.198Z,29.26
2023-04-22T08:44:18.224Z,29.26
2023-04-22T08:45:18.274Z,29.30
2023-04-22T08:46:18.365Z,29.30
2023-04-22T08:47:18.391Z,29.30
2023-04-22T08:48:18.435Z,29.30
2023-04-22T08:49:18.518Z,29.35
2023-04-22T08:50:18.572Z,29.35
2023-04-22T08:51:18.630Z,29.30
2023-04-22T08:52:18.699Z,29.33
2023-04-22T08:53:18.766Z,29.33
2023-04-22T08:54:18.806Z,29.33
2023-04-22T08:55:18.878Z,29.33
2023-04-22T08:56:18.920Z,29.28
2023-04-22T08:57:18.965Z,29.30
2023-04-22T08:58:19.033Z,29.33
2023-04-22T08:59:19.096Z,29.32
2023-04-22T09:00:19.184Z,29.32
2023-04-22T09:01:19.254Z,29.32
2023-04-22T09:02:19.337Z,29.33
2023-04-22T09:03:19.393Z,29.35
2023-04-22T09:04:19.503Z,29.32
2023-04-22T09:05:19.442Z,29.32
2023-04-22T09:06:19.493Z,29.35
2023-04-22T09:07:19.545Z,29.30
2023-04-22T09:08:19.578Z,29.32
2023-04-22T09:09:19.636Z,29.33
2023-04-22T09:10:19.696Z,29.30
2023-04-22T09:11:19.713Z,29.30
2023-04-22T09:12:19.785Z,29.30
2023-04-22T09:13:19.798Z,29.32
2023-04-22T09:14:19.862Z,29.32
2023-04-22T09:15:19.922Z,29.30
2023-04-22T09:16:20.008Z,29.32
2023-04-22T09:17:20.068Z,29.30
2023-04-22T09:18:20.103Z,29.29
2023-04-22T09:19:20.663Z,29.32
2023-04-22T09:20:20.210Z,29.33
2023-04-22T09:21:20.239Z,29.30
2023-04-22T09:22:20.299Z,29.32
2023-04-22T09:23:20.328Z,29.32
2023-04-22T09:24:20.398Z,29.33
2023-04-22T09:25:20.451Z,29.33
2023-04-22T09:26:20.515Z,29.33
2023-04-22T09:27:20.558Z,29.35
2023-04-22T09:28:20.617Z,29.35
2023-04-22T09:29:20.636Z,29.35
2023-04-22T09:30:20.697Z,29.35
2023-04-22T09:31:20.823Z,29.37
2023-04-22T09:32:20.854Z,29.40
2023-04-22T09:33:20.870Z,29.37
2023-04-22T09:34:20.891Z,29.39
2023-04-22T09:35:20.961Z,29.40
2023-04-22T09:36:21.001Z,29.39
2023-04-22T09:37:21.089Z,29.42
2023-04-22T09:38:21.144Z,29.42
2023-04-22T09:39:21.182Z,29.42
2023-04-22T09:40:21.247Z,29.40
2023-04-22T09:41:21.268Z,29.43
2023-04-22T09:42:21.355Z,29.43
2023-04-22T09:43:21.373Z,29.46
2023-04-22T09:44:21.439Z,29.45
2023-04-22T09:45:21.518Z,29.40
2023-04-22T09:46:21.681Z,29.42
2023-04-22T09:47:21.570Z,29.43
2023-04-22T09:48:21.638Z,29.43
2023-04-22T09:49:21.710Z,29.45
2023-04-22T09:50:21.756Z,29.43
2023-04-22T09:51:21.790Z,29.43
2023-04-22T09:52:21.853Z,29.43
2023-04-22T09:53:21.857Z,29.45
2023-04-22T09:54:21.899Z,29.46
2023-04-22T09:55:21.985Z,29.45
2023-04-22T09:56:22.020Z,29.46
2023-04-22T09:57:22.076Z,29.45
2023-04-22T09:58:22.100Z,29.45
2023-04-22T09:59:22.170Z,29.45
2023-04-22T10:00:22.174Z,29.45
2023-04-22T10:01:22.320Z,29.45
2023-04-22T10:02:22.309Z,29.46
2023-04-22T10:03:22.416Z,29.43
2023-04-22T10:04:22.402Z,29.45
2023-04-22T10:05:22.406Z,29.49
2023-04-22T10:06:22.448Z,29.43
2023-04-22T10:07:22.475Z,29.49
2023-04-22T10:08:22.503Z,29.46
2023-04-22T10:09:22.561Z,29.48
2023-04-22T10:10:22.588Z,29.48
2023-04-22T10:11:22.642Z,29.48
2023-04-22T10:12:32.791Z,29.48
2023-04-22T10:13:23.657Z,29.48
2023-04-22T10:14:22.664Z,29.46
2023-04-22T10:15:23.869Z,29.46
2023-04-22T10:16:22.704Z,29.49
2023-04-22T10:17:22.677Z,29.49
2023-04-22T10:18:22.640Z,29.50
2023-04-22T10:19:22.636Z,29.49
2023-04-22T10:20:22.641Z,29.50
2023-04-22T10:21:23.466Z,29.50
2023-04-22T10:22:22.578Z,29.50
2023-04-22T10:23:22.650Z,29.49
2023-04-22T10:24:22.598Z,29.50
2023-04-22T10:25:22.583Z,29.53
2023-04-22T10:26:22.567Z,29.50
2023-04-22T10:27:22.582Z,29.50
2023-04-22T10:28:22.630Z,29.52
2023-04-22T10:29:22.549Z,29.50
2023-04-22T10:30:22.559Z,29.49
2023-04-22T10:31:22.631Z,29.50
2023-04-22T10:32:22.581Z,29.53
2023-04-22T10:33:22.522Z,29.52
2023-04-22T10:34:22.568Z,29.52
2023-04-22T10:35:22.616Z,29.52
2023-04-22T10:36:22.645Z,29.50
2023-04-22T10:37:22.698Z,29.53
2023-04-22T10:38:22.702Z,29.53
2023-04-22T10:39:22.715Z,29.54
2023-04-22T10:40:23.721Z,29.54
2023-04-22T10:41:22.802Z,29.57
2023-04-22T10:42:22.832Z,29.53
2023-04-22T10:43:23.706Z,29.52
2023-04-22T10:44:22.927Z,29.56
2023-04-22T10:45:22.974Z,29.56
2023-04-22T10:46:23.041Z,29.56
2023-04-22T10:47:23.057Z,29.54
2023-04-22T10:48:23.090Z,29.57
2023-04-22T10:49:23.137Z,29.62
2023-04-22T10:50:23.151Z,29.62
2023-04-22T10:51:23.175Z,29.62
2023-04-22T10:52:23.191Z,29.63
2023-04-22T10:53:23.236Z,29.64
2023-04-22T10:54:23.253Z,29.62
2023-04-22T10:55:23.525Z,29.60
2023-04-22T10:56:23.315Z,29.64
2023-04-22T10:57:23.404Z,29.63
2023-04-22T10:58:23.409Z,29.64
2023-04-22T10:59:23.447Z,29.63
2023-04-22T11:00:23.495Z,29.64
2023-04-22T11:01:23.520Z,29.64
2023-04-22T11:02:23.654Z,29.64
2023-04-22T11:03:23.773Z,29.66
2023-04-22T11:04:23.826Z,29.64
2023-04-22T11:05:25.975Z,29.66
2023-04-22T11:06:23.868Z,29.66
2023-04-22T11:07:23.913Z,29.67
2023-04-22T11:08:23.974Z,29.69
2023-04-22T11:09:23.987Z,29.69
2023-04-22T11:10:24.004Z,29.69
2023-04-22T11:11:24.028Z,29.70
2023-04-22T11:12:24.728Z,29.72
2023-04-22T11:13:24.125Z,29.69
2023-04-22T11:14:24.196Z,29.70
2023-04-22T11:15:24.195Z,29.70
2023-04-22T11:16:24.326Z,29.72
2023-04-22T11:17:24.331Z,29.69
2023-04-22T11:18:24.325Z,29.72
2023-04-22T11:19:24.315Z,29.72
2023-04-22T11:20:24.384Z,29.70
2023-04-22T11:21:24.443Z,29.73
2023-04-22T11:22:24.433Z,29.70
2023-04-22T11:23:24.507Z,29.73
2023-04-22T11:24:24.566Z,29.72
2023-04-22T11:25:24.580Z,29.73
2023-04-22T11:26:24.626Z,29.76
2023-04-22T11:27:24.655Z,29.73
2023-04-22T11:28:24.689Z,29.74
2023-04-22T11:29:24.698Z,29.73
2023-04-22T11:30:24.762Z,29.77
2023-04-22T11:31:24.824Z,29.76
2023-04-22T11:32:24.883Z,29.76
2023-04-22T11:33:24.852Z,29.76
2023-04-22T11:34:24.878Z,29.76
2023-04-22T11:35:24.960Z,29.77
2023-04-22T11:36:24.999Z,29.79
2023-04-22T11:37:25.032Z,29.79
2023-04-22T11:38:25.076Z,29.79
2023-04-22T11:39:25.094Z,29.80
2023-04-22T11:40:30.639Z,29.76
2023-04-22T11:41:26.129Z,29.77
2023-04-22T11:42:25.110Z,29.74
2023-04-22T11:43:25.129Z,29.77
2023-04-22T11:44:25.121Z,29.77
2023-04-22T11:45:25.112Z,29.80
2023-04-22T11:46:25.156Z,29.76
2023-04-22T11:47:25.129Z,29.79
2023-04-22T11:48:25.093Z,29.77
2023-04-22T11:49:25.055Z,29.76
2023-04-22T11:50:25.065Z,29.74
2023-04-22T11:51:25.112Z,29.76
2023-04-22T11:52:25.070Z,29.74
2023-04-22T11:53:25.064Z,29.74
2023-04-22T11:54:25.052Z,29.76
2023-04-22T11:55:25.129Z,29.76
2023-04-22T11:56:25.167Z,29.74
2023-04-22T11:57:25.222Z,29.74
2023-04-22T11:58:25.242Z,29.74
2023-04-22T11:59:25.291Z,29.76
2023-04-22T12:00:25.358Z,29.73
2023-04-22T12:01:25.387Z,29.74
2023-04-22T12:02:25.661Z,29.74
2023-04-22T12:03:25.647Z,29.73
2023-04-22T12:04:25.590Z,29.72
2023-04-22T12:05:25.632Z,29.76
2023-04-22T12:06:25.651Z,29.73
2023-04-22T12:07:25.702Z,29.74
2023-04-22T12:08:25.737Z,29.72
2023-04-22T12:09:25.854Z,29.72
2023-04-22T12:10:25.843Z,29.74
2023-04-22T12:11:25.880Z,29.72
2023-04-22T12:12:25.969Z,29.72
2023-04-22T12:13:26.014Z,29.70
2023-04-22T12:14:26.085Z,29.70
2023-04-22T12:15:26.123Z,29.70
2023-04-22T12:16:26.217Z,29.73
2023-04-22T12:17:26.296Z,29.69
2023-04-22T12:18:26.293Z,29.70
2023-04-22T12:19:26.391Z,29.69
2023-04-22T12:20:26.397Z,29.70
2023-04-22T12:21:26.468Z,29.69
2023-04-22T12:22:26.493Z,29.69
2023-04-22T12:23:26.571Z,29.67
2023-04-22T12:24:26.615Z,29.67
2023-04-22T12:25:26.672Z,29.69
2023-04-22T12:26:27.323Z,29.64
2023-04-22T12:27:26.789Z,29.66
2023-04-22T12:28:26.830Z,29.64
2023-04-22T12:29:26.909Z,29.64
2023-04-22T12:30:26.965Z,29.64
2023-04-22T12:31:27.064Z,29.64
2023-04-22T12:32:27.074Z,29.64
2023-04-22T12:33:27.103Z,29.62
2023-04-22T12:34:27.133Z,29.62
2023-04-22T12:35:27.209Z,29.62
2023-04-22T12:36:27.272Z,29.60
2023-04-22T12:37:27.355Z,29.63
2023-04-22T12:38:27.379Z,29.60
2023-04-22T12:39:27.440Z,29.64
2023-04-22T12:40:27.491Z,29.60
2023-04-22T12:41:27.545Z,29.60
2023-04-22T12:42:27.608Z,29.59
2023-04-22T12:43:27.620Z,29.56
2023-04-22T12:44:27.674Z,29.57
2023-04-22T12:45:27.740Z,29.57
2023-04-22T12:46:27.772Z,29.57
2023-04-22T12:47:27.854Z,29.59
2023-04-22T12:48:27.913Z,29.57
2023-04-22T12:49:27.931Z,29.56
2023-04-22T12:50:27.971Z,29.56
2023-04-22T12:51:28.050Z,29.54
2023-04-22T12:52:28.090Z,29.54
2023-04-22T12:53:28.133Z,29.54
2023-04-22T12:54:28.151Z,29.56